createdAt,value
2022-11-04T00:02:08.555Z,76.25
2022-11-04T00:04:35.185Z,71.90
2022-11-04T00:07:01.917Z,72.60
2022-11-04T00:09:30.365Z,71.88
2022-11-04T00:12:16.538Z,74.10
2022-11-04T00:14:43.249Z,71.75
2022-11-04T00:17:22.892Z,71.00
2022-11-04T00:20:13.092Z,72.40
2022-11-04T00:23:01.355Z,71.65
2022-11-04T00:25:46.814Z,74.40
2022-11-04T00:28:34.695Z,69.35
2022-11-04T00:31:23.091Z,68.47
2022-11-04T00:33:51.540Z,70.55
2022-11-04T00:36:18.508Z,71.38
2022-11-04T00:38:45.326Z,72.28
2022-11-04T00:41:27.648Z,71.68
2022-11-04T00:43:58.808Z,70.93
2022-11-04T00:46:26.786Z,71.57
2022-11-04T00:48:53.600Z,72.72
2022-11-04T00:51:21.525Z,72.40
2022-11-04T00:53:48.725Z,71.63
2022-11-04T00:56:15.265Z,68.60
2022-11-04T00:58:41.737Z,69.22
2022-11-04T01:01:13.389Z,70.43
2022-11-04T01:03:40.082Z,71.78
2022-11-04T01:06:06.764Z,72.13
2022-11-04T01:08:33.454Z,72.10
2022-11-04T01:11:07.333Z,70.53
2022-11-04T01:13:34.875Z,67.82
2022-11-04T01:16:03.274Z,69.78
2022-11-04T01:18:29.762Z,69.85
2022-11-04T01:21:01.080Z,70.13
2022-11-04T01:23:27.808Z,72.07
2022-11-04T01:25:54.323Z,71.10
2022-11-04T01:28:20.853Z,72.95
2022-11-04T01:30:47.448Z,71.93
2022-11-04T01:33:13.989Z,71.60
2022-11-04T01:35:40.580Z,72.43
2022-11-04T01:38:07.365Z,75.05
2022-11-04T01:40:41.132Z,75.28
2022-11-04T01:43:50.829Z,77.25
2022-11-04T01:46:37.204Z,67.45
2022-11-04T01:49:14.382Z,67.00
2022-11-04T01:51:42.889Z,70.65
2022-11-04T01:54:10.915Z,68.18
2022-11-04T01:56:39.777Z,69.32
2022-11-04T01:59:10.930Z,74.80
2022-11-04T02:01:37.799Z,75.10
2022-11-04T02:04:23.993Z,72.00
2022-11-04T02:06:53.304Z,70.68
2022-11-04T02:09:21.147Z,70.75
2022-11-04T02:12:06.463Z,73.97
2022-11-04T02:14:35.182Z,70.93
2022-11-04T02:17:24.260Z,73.72
2022-11-04T02:20:18.729Z,66.57
2022-11-04T02:23:22.644Z,68.13
2022-11-04T02:26:07.408Z,67.88
2022-11-04T02:28:54.997Z,67.07
2022-11-04T02:31:44.822Z,66.60
2022-11-04T02:34:17.487Z,69.30
2022-11-04T02:36:52.703Z,71.63
2022-11-04T02:39:35.136Z,69.50
2022-11-04T02:42:24.713Z,68.68
2022-11-04T02:45:19.002Z,66.72
2022-11-04T02:47:50.620Z,66.05
2022-11-04T02:50:46.478Z,66.72
2022-11-04T02:53:23.533Z,65.47
2022-11-04T02:55:56.187Z,64.97
2022-11-04T02:58:41.392Z,65.43
2022-11-04T03:01:10.835Z,65.50
2022-11-04T03:03:46.176Z,66.95
2022-11-04T03:06:17.102Z,65.70
2022-11-04T03:08:48.093Z,62.83
2022-11-04T03:11:18.141Z,64.78
2022-11-04T03:13:50.913Z,68.63
2022-11-04T03:16:21.328Z,65.55
2022-11-04T03:19:16.905Z,64.03
2022-11-04T03:21:55.757Z,63.67
2022-11-04T03:24:22.356Z,68.63
2022-11-04T03:27:29.002Z,63.92
2022-11-04T03:30:06.909Z,61.40
2022-11-04T03:32:33.428Z,61.75
2022-11-04T03:35:00.051Z,66.25
2022-11-04T03:37:26.772Z,67.43
2022-11-04T03:39:53.617Z,65.60
2022-11-04T03:42:21.764Z,62.10
2022-11-04T03:44:56.799Z,65.75
2022-11-04T03:47:25.859Z,62.00
2022-11-04T03:50:01.107Z,63.47
2022-11-04T03:52:27.857Z,64.47
2022-11-04T03:54:54.370Z,61.22
2022-11-04T03:57:54.814Z,63.78
2022-11-04T04:00:23.664Z,59.97
2022-11-04T04:02:58.659Z,60.33
2022-11-04T04:05:30.849Z,63.92
2022-11-04T04:08:11.082Z,60.72
2022-11-04T04:11:07.849Z,60.47
2022-11-04T04:13:51.751Z,60.50
2022-11-04T04:16:33.351Z,57.72
2022-11-04T04:19:06.905Z,60.83
2022-11-04T04:21:42.822Z,57.72
2022-11-04T04:24:31.347Z,58.28
2022-11-04T04:27:18.241Z,56.60
2022-11-04T04:29:46.346Z,55.45
2022-11-04T04:32:13.955Z,61.28
2022-11-04T04:34:40.720Z,57.65
2022-11-04T04:37:20.293Z,58.88
2022-11-04T04:40:24.679Z,57.50
2022-11-04T04:43:11.700Z,55.20
2022-11-04T04:45:42.384Z,53.80
2022-11-04T04:48:12.253Z,57.47
2022-11-04T04:50:46.801Z,59.15
2022-11-04T04:55:41.781Z,52.58
2022-11-04T04:58:08.689Z,57.58
2022-11-04T05:00:35.284Z,56.53
2022-11-04T05:03:01.810Z,55.40
2022-11-04T05:05:28.301Z,55.17
2022-11-04T05:07:54.860Z,56.15
2022-11-04T05:10:21.632Z,55.60
2022-11-04T05:13:06.825Z,56.25
2022-11-04T05:15:34.686Z,53.13
2022-11-04T05:18:03.419Z,55.35
2022-11-04T05:20:30.400Z,55.20
2022-11-04T05:22:57.040Z,52.30
2022-11-04T05:25:23.556Z,54.45
2022-11-04T05:27:50.123Z,56.20
2022-11-04T05:30:16.653Z,53.97
2022-11-04T05:32:43.447Z,53.65
2022-11-04T05:35:09.947Z,55.65
2022-11-04T05:37:36.444Z,55.60
2022-11-04T05:40:03.085Z,53.72
2022-11-04T05:42:31.396Z,53.55
2022-11-04T05:45:00.313Z,55.05
2022-11-04T05:47:26.816Z,54.75
2022-11-04T05:49:53.305Z,55.22
2022-11-04T05:52:19.834Z,55.53
2022-11-04T05:54:46.314Z,56.40
2022-11-04T05:57:12.916Z,56.13
2022-11-04T05:59:39.383Z,55.97
2022-11-04T06:02:06.229Z,59.60
2022-11-04T06:04:33.246Z,57.20
2022-11-04T06:06:59.817Z,54.65
2022-11-04T06:09:39.097Z,57.03
2022-11-04T06:12:15.118Z,60.13
2022-11-04T06:14:42.674Z,59.28
2022-11-04T06:17:16.383Z,57.53
2022-11-04T06:19:42.949Z,58.00
2022-11-04T06:22:11.699Z,57.30
2022-11-04T06:24:38.217Z,58.20
2022-11-04T06:27:05.296Z,60.30
2022-11-04T06:29:32.323Z,55.90
2022-11-04T06:31:58.969Z,56.63
2022-11-04T06:34:25.721Z,55.13
2022-11-04T06:36:52.191Z,56.83
2022-11-04T06:39:18.785Z,56.05
2022-11-04T06:41:47.642Z,58.30
2022-11-04T06:44:17.175Z,57.03
2022-11-04T06:46:44.225Z,57.00
2022-11-04T06:49:17.617Z,58.47
2022-11-04T06:51:44.593Z,55.45
2022-11-04T06:54:11.081Z,55.85
2022-11-04T06:56:37.766Z,54.50
2022-11-04T06:59:04.381Z,59.05
2022-11-04T07:01:33.944Z,59.70
2022-11-04T07:04:00.998Z,57.88
2022-11-04T07:06:31.945Z,59.10
2022-11-04T07:09:01.258Z,56.35
2022-11-04T07:11:30.113Z,58.42
2022-11-04T07:13:57.396Z,59.40
2022-11-04T07:16:24.142Z,56.08
2022-11-04T07:18:51.879Z,54.10
2022-11-04T07:21:18.618Z,52.63
2022-11-04T07:23:45.191Z,53.88
2022-11-04T07:26:12.398Z,52.15
2022-11-04T07:28:39.044Z,55.05
2022-11-04T07:31:07.320Z,54.25
2022-11-04T07:33:34.309Z,52.95
2022-11-04T07:36:10.779Z,52.60
2022-11-04T07:38:37.343Z,52.22
2022-11-04T07:41:04.153Z,50.33
2022-11-04T07:43:30.897Z,53.22
2022-11-04T07:46:09.687Z,52.70
2022-11-04T07:48:36.962Z,53.85
2022-11-04T07:51:05.069Z,54.13
2022-11-04T07:53:32.027Z,53.83
2022-11-04T07:55:58.825Z,52.45
2022-11-04T07:58:28.518Z,54.03
2022-11-04T08:00:59.985Z,57.13
2022-11-04T08:03:27.021Z,54.47
2022-11-04T08:05:59.025Z,54.60
2022-11-04T08:08:26.346Z,54.42
2022-11-04T08:11:00.400Z,54.90
2022-11-04T08:13:31.810Z,55.03
2022-11-04T08:16:03.326Z,56.08
2022-11-04T08:18:32.021Z,55.95
2022-11-04T08:20:58.845Z,56.17
2022-11-04T08:23:26.262Z,54.90
2022-11-04T08:25:52.769Z,56.33
2022-11-04T08:28:19.253Z,58.30
2022-11-04T08:31:02.072Z,56.90
2022-11-04T08:33:31.048Z,58.15
2022-11-04T08:36:01.800Z,55.25
2022-11-04T08:38:29.172Z,56.22
2022-11-04T08:41:00.371Z,56.30
2022-11-04T08:43:27.500Z,54.25
2022-11-04T08:45:54.449Z,53.70
2022-11-04T08:48:21.297Z,54.10
2022-11-04T08:50:58.870Z,56.20
2022-11-04T08:53:26.286Z,56.15
2022-11-04T08:55:53.889Z,58.22
2022-11-04T08:58:21.626Z,55.67
2022-11-04T09:00:48.338Z,57.63
2022-11-04T09:03:15.393Z,57.67
2022-11-04T09:05:47.418Z,57.90
2022-11-04T09:08:17.949Z,59.97
2022-11-04T09:10:46.437Z,59.50
2022-11-04T09:13:14.052Z,58.58
2022-11-04T09:15:40.615Z,59.97
2022-11-04T09:18:08.080Z,59.45
2022-11-04T09:20:38.493Z,61.38
2022-11-04T09:23:06.147Z,63.20
2022-11-04T09:25:33.242Z,60.90
2022-11-04T09:28:00.384Z,59.88
2022-11-04T09:30:27.518Z,60.03
2022-11-04T09:32:54.134Z,58.67
2022-11-04T09:35:20.629Z,61.40
2022-11-04T09:37:47.142Z,64.10
2022-11-04T09:40:23.321Z,61.28
2022-11-04T09:43:28.460Z,62.67
2022-11-04T09:45:56.706Z,62.55
2022-11-04T09:48:39.067Z,61.63
2022-11-04T09:51:12.832Z,64.75
2022-11-04T09:53:51.416Z,64.57
2022-11-04T09:56:38.876Z,62.95
2022-11-04T09:59:06.369Z,62.17
2022-11-04T10:01:54.744Z,68.25
2022-11-04T10:04:37.357Z,65.90
2022-11-04T10:07:25.039Z,64.22
2022-11-04T10:10:19.419Z,61.90
2022-11-04T10:12:50.333Z,64.10
2022-11-04T10:15:44.570Z,63.65
2022-11-04T10:18:35.450Z,63.83
2022-11-04T10:21:17.454Z,63.72
2022-11-04T10:24:02.340Z,63.25
2022-11-04T10:26:46.053Z,63.00
2022-11-04T10:29:16.925Z,63.80
2022-11-04T10:31:46.186Z,61.35
2022-11-04T10:34:28.656Z,64.30
2022-11-04T10:36:56.868Z,65.38
2022-11-04T10:39:28.949Z,61.30
2022-11-04T10:41:58.161Z,58.55
2022-11-04T10:44:35.468Z,62.97
2022-11-04T10:47:25.208Z,59.80
2022-11-04T10:50:31.791Z,59.85
2022-11-04T10:53:24.829Z,59.13
2022-11-04T10:55:54.258Z,56.65
2022-11-04T10:58:35.472Z,61.42
2022-11-04T11:01:32.340Z,55.17
2022-11-04T11:04:00.269Z,59.58
2022-11-04T11:06:34.373Z,59.15
2022-11-04T11:09:25.861Z,62.42
2022-11-04T11:11:53.228Z,60.53
2022-11-04T11:14:32.780Z,59.47
2022-11-04T11:17:22.390Z,59.35
2022-11-04T11:19:54.168Z,58.60
2022-11-04T11:22:52.015Z,61.95
2022-11-04T11:25:31.096Z,60.58
2022-11-04T11:28:13.226Z,60.05
2022-11-04T11:30:46.501Z,61.72
2022-11-04T11:33:29.115Z,61.63
2022-11-04T11:36:14.365Z,61.08
2022-11-04T11:38:56.151Z,60.05
2022-11-04T11:41:28.880Z,60.28
2022-11-04T11:43:56.618Z,64.10
2022-11-04T11:46:29.841Z,62.22
2022-11-04T11:49:01.441Z,67.90
2022-11-04T11:51:32.733Z,69.57
2022-11-04T11:54:07.161Z,64.80
2022-11-04T11:57:11.484Z,68.93
2022-11-04T12:03:21.033Z,68.25
2022-11-04T12:11:53.015Z,74.18
2022-11-04T12:14:36.606Z,82.30
2022-11-04T12:17:12.024Z,83.97
2022-11-04T12:19:52.047Z,87.38
2022-11-04T12:22:34.176Z,87.57
2022-11-04T12:25:06.087Z,85.78
2022-11-04T12:27:53.662Z,91.13
2022-11-04T12:30:32.341Z,92.75
2022-11-04T12:33:03.227Z,95.30
2022-11-04T12:36:00.713Z,102.32
2022-11-04T12:39:08.113Z,100.03
2022-11-04T12:42:18.923Z,98.70
2022-11-04T12:44:44.842Z,97.55
2022-11-04T12:47:33.306Z,101.25
2022-11-04T12:50:18.590Z,103.75
2022-11-04T12:53:11.814Z,99.65
2022-11-04T12:56:02.756Z,103.85
2022-11-04T12:58:29.702Z,98.85
2022-11-04T13:01:09.728Z,106.07
2022-11-04T13:03:52.424Z,99.20
2022-11-04T13:06:26.703Z,99.82
2022-11-04T13:08:59.495Z,97.93
2022-11-04T13:11:35.136Z,92.70
2022-11-04T13:14:20.623Z,90.30
2022-11-04T13:16:51.945Z,91.43
2022-11-04T13:19:45.798Z,91.63
2022-11-04T13:22:19.540Z,86.50
2022-11-04T13:24:52.481Z,89.57
2022-11-04T13:27:24.828Z,90.82
2022-11-04T13:30:04.223Z,84.65
2022-11-04T13:32:58.033Z,80.80
2022-11-04T13:36:01.341Z,80.82
2022-11-04T13:38:33.831Z,76.72
2022-11-04T13:41:28.289Z,81.90
2022-11-04T13:43:58.209Z,76.87
2022-11-04T13:46:30.500Z,77.82
2022-11-04T13:49:00.190Z,75.53
2022-11-04T13:51:37.999Z,76.70
2022-11-04T13:54:06.389Z,76.05
2022-11-04T13:56:36.306Z,76.75
2022-11-04T13:59:18.495Z,72.43
2022-11-04T14:01:45.546Z,72.50
2022-11-04T14:04:25.232Z,71.45
2022-11-04T14:06:59.285Z,69.00
2022-11-04T14:09:28.873Z,72.97
2022-11-04T14:12:10.535Z,71.90
2022-11-04T14:14:38.588Z,74.07
2022-11-04T14:17:25.300Z,76.00
2022-11-04T14:19:55.726Z,77.82
2022-11-04T14:22:27.164Z,74.13
2022-11-04T14:24:56.104Z,77.93
2022-11-04T14:27:32.945Z,79.03
2022-11-04T14:29:59.659Z,76.97
2022-11-04T14:32:40.206Z,81.00
2022-11-04T14:35:08.821Z,83.10
2022-11-04T14:37:36.609Z,80.85
2022-11-04T14:40:08.173Z,83.38
2022-11-04T14:42:46.042Z,82.13
2022-11-04T14:45:33.574Z,85.57
2022-11-04T14:48:20.345Z,79.28
2022-11-04T14:50:51.746Z,81.15
2022-11-04T14:53:33.153Z,85.13
2022-11-04T14:56:23.249Z,89.78
2022-11-04T14:59:03.268Z,84.90
2022-11-04T15:01:37.102Z,84.65
2022-11-04T15:04:25.253Z,89.90
2022-11-04T15:06:56.807Z,85.25
2022-11-04T15:09:35.355Z,92.45
2022-11-04T15:12:29.197Z,87.90
2022-11-04T15:14:57.170Z,87.63
2022-11-04T15:17:28.785Z,89.20
2022-11-04T15:19:58.023Z,89.20
2022-11-04T15:22:24.826Z,92.13
2022-11-04T15:24:51.431Z,93.25
2022-11-04T15:27:20.488Z,97.30
2022-11-04T15:29:58.228Z,95.40
2022-11-04T15:32:26.513Z,92.38
2022-11-04T15:34:54.227Z,95.07
2022-11-04T15:37:23.670Z,94.55
2022-11-04T15:39:55.148Z,97.35
2022-11-04T15:42:39.838Z,93.60
2022-11-04T15:45:37.192Z,95.38
2022-11-04T15:48:37.987Z,93.18
2022-11-04T15:51:16.908Z,95.55
2022-11-04T15:53:51.124Z,94.32
2022-11-04T15:56:22.761Z,93.78
2022-11-04T15:58:50.406Z,95.10
2022-11-04T16:01:18.714Z,101.13
2022-11-04T16:03:56.644Z,97.07
2022-11-04T16:07:10.061Z,99.15
2022-11-04T16:09:46.983Z,94.50
2022-11-04T16:12:36.508Z,96.85
2022-11-04T16:15:03.972Z,95.25
2022-11-04T16:17:32.051Z,99.78
2022-11-04T16:20:04.189Z,101.95
2022-11-04T16:22:37.145Z,94.13
2022-11-04T16:25:06.268Z,103.82
2022-11-04T16:27:35.770Z,99.05
2022-11-04T16:30:06.519Z,98.30
2022-11-04T16:32:48.525Z,97.85
2022-11-04T16:35:24.917Z,95.85
2022-11-04T16:37:52.426Z,96.18
2022-11-04T16:40:20.333Z,99.32
2022-11-04T16:42:48.109Z,95.82
2022-11-04T16:45:21.885Z,98.38
2022-11-04T16:47:48.394Z,94.47
2022-11-04T16:50:16.845Z,97.45
2022-11-04T16:52:44.518Z,97.57
2022-11-04T16:55:12.734Z,96.28
2022-11-04T16:57:39.657Z,98.18
2022-11-04T17:00:07.326Z,99.70
2022-11-04T17:02:40.169Z,97.30
2022-11-04T17:05:08.197Z,100.20
2022-11-04T17:07:52.134Z,98.68
2022-11-04T17:10:26.369Z,96.90
2022-11-04T17:12:53.098Z,96.15
2022-11-04T17:15:19.660Z,98.75
2022-11-04T17:17:46.544Z,94.38
2022-11-04T17:20:17.532Z,100.47
2022-11-04T17:22:46.704Z,96.82
2022-11-04T17:25:17.694Z,100.05
2022-11-04T17:27:44.536Z,98.05
2022-11-04T17:30:13.122Z,99.57
2022-11-04T17:32:40.255Z,98.88
2022-11-04T17:35:06.981Z,99.25
2022-11-04T17:37:33.547Z,102.95
2022-11-04T17:40:00.154Z,99.68
2022-11-04T17:42:44.965Z,102.53
2022-11-04T17:45:11.560Z,100.40
2022-11-04T17:47:38.413Z,100.13
2022-11-04T17:50:07.940Z,102.38
2022-11-04T17:52:35.352Z,102.05
2022-11-04T17:55:01.952Z,110.13
2022-11-04T17:57:28.486Z,105.35
2022-11-04T17:59:55.010Z,104.82
2022-11-04T18:02:21.792Z,104.13
2022-11-04T18:04:48.450Z,106.22
2022-11-04T18:07:15.004Z,106.65
2022-11-04T18:09:42.883Z,104.25
2022-11-04T18:12:28.053Z,107.55
2022-11-04T18:14:54.557Z,101.50
2022-11-04T18:17:24.682Z,106.20
2022-11-04T18:19:54.074Z,105.60
2022-11-04T18:22:20.743Z,109.22
2022-11-04T18:24:47.907Z,113.45
2022-11-04T18:27:15.372Z,106.68
2022-11-04T18:29:42.071Z,110.70
2022-11-04T18:32:08.761Z,112.18
2022-11-04T18:34:35.720Z,112.53
2022-11-04T18:37:02.532Z,110.65
2022-11-04T18:39:29.158Z,113.90
2022-11-04T18:41:55.699Z,114.38
2022-11-04T18:44:22.739Z,114.70
2022-11-04T18:46:49.823Z,114.97
2022-11-04T18:49:17.661Z,119.15
2022-11-04T18:51:44.996Z,114.13
2022-11-04T18:54:12.292Z,118.47
2022-11-04T18:56:39.024Z,117.15
2022-11-04T18:59:09.053Z,117.75
2022-11-04T19:01:35.896Z,113.75
2022-11-04T19:04:02.525Z,115.35
2022-11-04T19:06:32.088Z,117.45
2022-11-04T19:09:13.264Z,116.18
2022-11-04T19:12:10.959Z,112.13
2022-11-04T19:14:37.510Z,109.85
2022-11-04T19:17:04.580Z,113.82
2022-11-04T19:19:31.084Z,117.70
2022-11-04T19:21:57.608Z,118.68
2022-11-04T19:24:24.089Z,120.20
2022-11-04T19:26:50.590Z,118.15
2022-11-04T19:29:17.113Z,118.95
2022-11-04T19:31:43.642Z,119.50
2022-11-04T19:34:10.183Z,123.22
2022-11-04T19:36:37.433Z,119.28
2022-11-04T19:39:04.986Z,123.72
2022-11-04T19:41:50.142Z,125.10
2022-11-04T19:44:18.436Z,117.57
2022-11-04T19:46:46.815Z,124.05
2022-11-04T19:49:13.726Z,122.97
2022-11-04T19:51:40.751Z,120.70
2022-11-04T19:54:08.082Z,124.43
2022-11-04T19:56:36.480Z,123.32
2022-11-04T19:59:06.445Z,121.53
2022-11-04T20:01:35.150Z,123.05
2022-11-04T20:04:03.046Z,123.72
2022-11-04T20:06:32.148Z,122.35
2022-11-04T20:09:01.886Z,121.32
2022-11-04T20:11:28.558Z,123.53
2022-11-04T20:13:55.139Z,123.63
2022-11-04T20:16:25.221Z,124.30
2022-11-04T20:18:56.713Z,121.72
2022-11-04T20:21:25.610Z,120.47
2022-11-04T20:23:57.151Z,118.50
2022-11-04T20:26:24.357Z,117.45
2022-11-04T20:28:54.394Z,119.97
2022-11-04T20:31:23.852Z,122.07
2022-11-04T20:33:51.705Z,121.05
2022-11-04T20:36:21.779Z,120.60
2022-11-04T20:38:48.370Z,118.53
2022-11-04T20:41:18.760Z,123.05
2022-11-04T20:43:49.317Z,122.55
2022-11-04T20:46:21.891Z,125.03
2022-11-04T20:48:48.797Z,121.10
2022-11-04T20:51:17.776Z,123.38
2022-11-04T20:53:45.658Z,118.07
2022-11-04T20:56:16.044Z,119.88
2022-11-04T20:58:44.126Z,114.85
2022-11-04T21:01:26.239Z,117.90
2022-11-04T21:03:54.286Z,114.63
2022-11-04T21:06:21.205Z,117.53
2022-11-04T21:08:48.388Z,117.80
2022-11-04T21:11:15.224Z,118.95
2022-11-04T21:13:41.787Z,113.55
2022-11-04T21:16:09.971Z,118.70
2022-11-04T21:18:36.464Z,110.03
2022-11-04T21:21:05.294Z,111.72
2022-11-04T21:23:31.856Z,108.97
2022-11-04T21:26:05.744Z,108.78
2022-11-04T21:28:32.309Z,102.55
2022-11-04T21:31:03.873Z,106.82
2022-11-04T21:33:30.537Z,104.30
2022-11-04T21:36:02.158Z,112.80
2022-11-04T21:38:29.200Z,107.65
2022-11-04T21:41:04.786Z,107.45
2022-11-04T21:43:31.978Z,106.65
2022-11-04T21:46:02.534Z,114.65
2022-11-04T21:48:33.956Z,117.68
2022-11-04T21:51:05.408Z,114.10
2022-11-04T21:53:32.112Z,115.78
2022-11-04T21:56:09.659Z,114.28
2022-11-04T21:58:37.024Z,117.38
2022-11-04T22:01:08.126Z,117.00
2022-11-04T22:03:34.920Z,120.18
2022-11-04T22:06:12.914Z,121.82
2022-11-04T22:08:43.376Z,121.68
2022-11-04T22:11:14.332Z,123.43
2022-11-04T22:13:41.153Z,125.45
2022-11-04T22:16:16.636Z,126.72
2022-11-04T22:18:43.466Z,126.45
2022-11-04T22:21:16.270Z,131.57
2022-11-04T22:23:43.891Z,125.70
2022-11-04T22:26:13.674Z,136.57
2022-11-04T22:28:40.731Z,127.97
2022-11-04T22:31:12.285Z,128.27
2022-11-04T22:33:39.572Z,121.28
2022-11-04T22:36:06.909Z,122.97
2022-11-04T22:38:34.610Z,125.78
2022-11-04T22:41:02.754Z,116.22
2022-11-04T22:43:29.864Z,116.13
2022-11-04T22:45:57.600Z,111.88
2022-11-04T22:48:24.185Z,110.47
2022-11-04T22:50:56.020Z,105.20
2022-11-04T22:53:23.098Z,102.32
2022-11-04T22:55:50.082Z,104.55
2022-11-04T22:58:16.780Z,99.20
2022-11-04T23:00:43.306Z,99.30
2022-11-04T23:03:10.387Z,98.78
2022-11-04T23:05:37.509Z,96.10
2022-11-04T23:08:04.100Z,96.18
2022-11-04T23:10:49.803Z,99.28
2022-11-04T23:13:35.159Z,89.95
2022-11-04T23:16:20.064Z,91.15
2022-11-04T23:21:37.167Z,71.53
2022-11-04T23:24:22.582Z,77.43
2022-11-04T23:26:50.072Z,73.30
2022-11-04T23:29:36.303Z,74.85
2022-11-04T23:32:03.273Z,75.65
2022-11-04T23:34:48.332Z,72.38
2022-11-04T23:37:14.955Z,73.85
2022-11-04T23:39:50.886Z,73.43
2022-11-04T23:42:20.240Z,69.95
2022-11-04T23:45:08.225Z,68.15
2022-11-04T23:47:56.596Z,66.18
2022-11-04T23:50:44.099Z,66.05
2022-11-04T23:53:33.701Z,70.20
2022-11-04T23:56:18.985Z,64.35
2022-11-04T23:59:04.393Z,62.85
